Time;durP1;ratioP1;P1;durP2;ratioP2;P2;SDS_P1;SDS_P2;PMS_P1;PMS_P2;Temp;Humidity;BMP_temperature;BMP_pressure;BME280_temperature;BME280_humidity;BME280_pressure;Samples;Min_cycle;Max_cycle;Signal;HPM_P1;HPM_P2
2022/01/04 00:02:17;;;;;;;4.20;3.80;;;6.30;85.30;;;;;;5062457;28;20566;-75
2022/01/04 00:04:42;;;;;;;7.53;4.97;;;6.30;85.50;;;;;;5065477;28;20232;-75
2022/01/04 00:07:08;;;;;;;7.43;4.73;;;6.20;86.50;;;;;;5061865;28;20186;-76
2022/01/04 00:09:39;;;;;;;6.43;4.97;;;;;;;;;;5061575;28;21799;-75
2022/01/04 00:14:51;;;;;;;5.80;4.97;;;;;;;;;;5060939;28;20275;-75
2022/01/04 00:17:17;;;;;;;6.63;4.33;;;;;;;;;;5062849;28;20214;-75
2022/01/04 00:19:43;;;;;;;9.10;5.33;;;;;;;;;;5064727;28;20219;-75
2022/01/04 00:22:08;;;;;;;5.63;4.87;;;6.10;86.30;;;;;;5061916;28;20202;-76
2022/01/04 00:24:36;;;;;;;4.33;3.57;;;6.10;86.10;;;;;;5062577;28;20623;-75
2022/01/04 00:27:02;;;;;;;5.00;4.33;;;;;;;;;;5057310;28;20179;-75
2022/01/04 00:29:27;;;;;;;7.00;3.40;;;6.10;86.00;;;;;;5058501;28;20191;-75
2022/01/04 00:31:53;;;;;;;9.03;5.67;;;6.10;86.10;;;;;;5063799;28;20170;-75
2022/01/04 00:34:19;;;;;;;4.90;4.03;;;6.10;86.10;;;;;;5062247;28;20187;-76
2022/01/04 00:36:44;;;;;;;8.93;5.27;;;6.00;85.80;;;;;;5061460;28;20750;-75
2022/01/04 00:39:10;;;;;;;6.07;5.43;;;6.00;85.90;;;;;;5061796;28;20297;-76
2022/01/04 00:41:36;;;;;;;5.10;4.63;;;5.90;86.00;;;;;;5063458;28;20250;-75
2022/01/04 00:44:02;;;;;;;8.00;5.20;;;5.80;86.10;;;;;;5062628;28;20845;-76
2022/01/04 00:46:27;;;;;;;6.77;4.87;;;5.80;86.40;;;;;;5060079;28;20261;-76
2022/01/04 00:49:10;;;;;;;9.03;5.13;;;;;;;;;;5065520;28;20249;-76
2022/01/04 00:51:40;;;;;;;6.20;4.80;;;5.70;87.00;;;;;;5063455;28;20219;-75
2022/01/04 00:54:07;;;;;;;5.53;4.87;;;5.70;87.00;;;;;;5060142;28;20187;-75
2022/01/04 00:56:32;;;;;;;6.10;4.83;;;5.60;87.20;;;;;;5055977;28;20179;-76
2022/01/04 00:58:58;;;;;;;8.90;5.90;;;;;;;;;;5058564;28;20266;-75
2022/01/04 01:01:25;;;;;;;5.23;4.03;;;5.50;88.00;;;;;;5062694;28;20788;-75
2022/01/04 01:03:51;;;;;;;8.80;4.77;;;5.50;88.20;;;;;;5062356;28;20644;-75
2022/01/04 01:06:18;;;;;;;11.40;4.13;;;5.40;88.20;;;;;;5065144;28;20269;-75
2022/01/04 01:08:44;;;;;;;7.00;5.23;;;;;;;;;;5058951;28;20222;-76
2022/01/04 01:11:10;;;;;;;5.67;4.20;;;5.30;88.80;;;;;;5061434;28;20660;-75
2022/01/04 01:13:37;;;;;;;10.73;5.60;;;5.30;88.90;;;;;;5064223;28;20190;-75
2022/01/04 01:16:04;;;;;;;4.50;4.10;;;5.20;89.20;;;;;;5062908;28;20222;-76
2022/01/04 01:18:30;;;;;;;5.90;3.67;;;;;;;;;;5061865;28;20272;-75
2022/01/04 01:20:56;;;;;;;7.73;4.93;;;5.20;88.80;;;;;;5062526;28;20245;-75
2022/01/04 01:23:23;;;;;;;7.10;4.43;;;5.20;88.80;;;;;;5065667;28;20648;-75
2022/01/04 01:25:49;;;;;;;4.87;3.67;;;5.20;88.60;;;;;;5065397;28;20609;-76
2022/01/04 01:28:15;;;;;;;10.57;4.77;;;5.20;88.70;;;;;;5064860;28;20190;-75
2022/01/04 01:30:43;;;;;;;6.77;4.50;;;5.10;88.80;;;;;;5067017;28;20807;-75
2022/01/04 01:33:10;;;;;;;8.27;5.00;;;5.10;88.50;;;;;;5061002;28;20178;-75
2022/01/04 01:35:37;;;;;;;4.37;3.97;;;5.10;88.40;;;;;;5068274;28;20203;-76
2022/01/04 01:38:05;;;;;;;7.67;4.30;;;5.10;88.50;;;;;;5063347;28;20237;-76
2022/01/04 01:40:31;;;;;;;7.50;3.67;;;5.10;88.40;;;;;;5057883;28;20580;-75
2022/01/04 01:42:57;;;;;;;7.30;4.63;;;5.10;88.20;;;;;;5064576;28;20210;-74
2022/01/04 01:45:24;;;;;;;8.77;5.50;;;5.00;88.40;;;;;;5063760;28;20368;-75
2022/01/04 01:47:51;;;;;;;8.00;5.10;;;5.00;88.40;;;;;;5065021;28;20179;-75
2022/01/04 01:50:18;;;;;;;7.03;4.70;;;5.00;88.30;;;;;;5064490;28;20561;-75
2022/01/04 01:52:49;;;;;;;6.87;4.53;;;5.00;88.50;;;;;;5063068;28;20193;-75
2022/01/04 01:55:20;;;;;;;12.00;6.43;;;5.00;88.70;;;;;;5066815;28;20194;-75
2022/01/04 01:57:47;;;;;;;16.23;6.37;;;5.00;88.80;;;;;;5062581;28;20190;-75
2022/01/04 02:00:16;;;;;;;8.90;5.63;;;4.90;88.80;;;;;;5066746;28;20217;-76
2022/01/04 02:02:42;;;;;;;9.97;6.10;;;;;;;;;;5063148;28;20214;-74
2022/01/04 02:05:09;;;;;;;8.87;5.73;;;4.80;89.20;;;;;;5065550;28;20555;-75
2022/01/04 02:07:37;;;;;;;7.30;5.57;;;4.80;89.40;;;;;;5063692;28;20194;-74
2022/01/04 02:10:05;;;;;;;16.00;5.33;;;4.70;89.70;;;;;;5065584;28;20273;-75
2022/01/04 02:12:33;;;;;;;9.50;5.83;;;4.70;90.00;;;;;;5062725;28;20327;-75
2022/01/04 02:14:59;;;;;;;9.80;6.50;;;4.60;89.90;;;;;;5063202;28;20668;-75
2022/01/04 02:17:25;;;;;;;11.97;6.80;;;4.60;90.00;;;;;;5064920;28;20550;-74
2022/01/04 02:19:56;;;;;;;10.67;5.30;;;4.60;90.50;;;;;;5064307;28;20218;-75
2022/01/04 02:22:22;;;;;;;10.33;5.83;;;4.60;90.40;;;;;;5067650;28;20771;-75
2022/01/04 02:24:48;;;;;;;7.47;5.40;;;;;;;;;;5064455;28;20183;-75
2022/01/04 02:27:15;;;;;;;8.70;5.63;;;4.50;90.60;;;;;;5062109;28;20183;-75
2022/01/04 02:29:42;;;;;;;10.17;5.67;;;4.50;90.60;;;;;;5065396;28;20194;-75
2022/01/04 02:32:08;;;;;;;10.83;7.00;;;4.50;90.90;;;;;;5061145;28;20719;-75
2022/01/04 02:34:34;;;;;;;10.03;5.60;;;;;;;;;;5065765;28;20183;-75
2022/01/04 02:37:00;;;;;;;8.20;4.90;;;;;;;;;;5065109;28;20641;-75
2022/01/04 02:39:27;;;;;;;9.53;5.60;;;4.40;91.10;;;;;;5063697;28;20293;-77
2022/01/04 02:41:53;;;;;;;8.67;5.60;;;;;;;;;;5064608;28;20661;-75
2022/01/04 02:44:19;;;;;;;5.47;4.97;;;;;;;;;;5064306;28;20735;-74
2022/01/04 02:46:45;;;;;;;6.00;4.77;;;4.40;91.30;;;;;;5061016;28;20885;-75
2022/01/04 02:49:10;;;;;;;9.30;5.50;;;4.40;91.40;;;;;;5066940;28;20228;-75
2022/01/04 02:51:36;;;;;;;7.10;4.67;;;4.40;91.30;;;;;;5067161;28;20585;-74
2022/01/04 02:54:02;;;;;;;9.17;3.53;;;4.40;91.10;;;;;;5063308;28;20195;-75
2022/01/04 02:56:27;;;;;;;6.10;3.43;;;4.40;91.40;;;;;;5066606;28;20179;-75
2022/01/04 02:58:53;;;;;;;5.60;4.33;;;4.40;91.30;;;;;;5060741;28;20210;-75
2022/01/04 03:01:19;;;;;;;5.73;4.43;;;4.40;91.20;;;;;;5063141;28;20186;-75
2022/01/04 03:03:45;;;;;;;6.40;4.57;;;;;;;;;;5066179;28;20627;-74
2022/01/04 03:06:14;;;;;;;6.07;3.60;;;4.40;91.10;;;;;;5061937;28;20183;-74
2022/01/04 03:08:40;;;;;;;5.37;4.87;;;4.40;90.90;;;;;;5064749;28;20183;-75
2022/01/04 03:11:06;;;;;;;5.07;3.67;;;4.40;90.80;;;;;;5064058;28;20208;-74
2022/01/04 03:13:32;;;;;;;4.07;3.40;;;4.40;90.70;;;;;;5066340;28;20187;-74
2022/01/04 03:15:57;;;;;;;8.37;3.97;;;4.40;90.60;;;;;;5065949;28;20205;-75
2022/01/04 03:18:23;;;;;;;4.17;3.43;;;4.30;90.70;;;;;;5068192;28;20551;-74
2022/01/04 03:20:48;;;;;;;4.37;3.00;;;4.30;90.60;;;;;;5058005;28;20195;-74
2022/01/04 03:23:15;;;;;;;6.63;3.50;;;;;;;;;;5064759;28;20212;-74
2022/01/04 03:25:41;;;;;;;4.90;3.77;;;;;;;;;;5060537;28;20186;-75
2022/01/04 03:28:08;;;;;;;5.30;4.13;;;4.30;90.70;;;;;;5059586;28;20240;-75
2022/01/04 03:30:35;;;;;;;4.13;3.83;;;4.30;90.80;;;;;;5063678;28;20179;-76
2022/01/04 03:33:01;;;;;;;4.93;3.67;;;4.20;90.90;;;;;;5062598;28;20186;-76
2022/01/04 03:35:27;;;;;;;3.70;3.13;;;4.20;90.80;;;;;;5062633;28;20239;-76
2022/01/04 03:37:53;;;;;;;4.50;4.07;;;;;;;;;;5063530;28;20190;-76
2022/01/04 03:40:19;;;;;;;7.87;3.37;;;;;;;;;;5058918;28;20218;-76
2022/01/04 03:42:45;;;;;;;4.60;3.13;;;;;;;;;;5060379;28;20542;-75
2022/01/04 03:45:11;;;;;;;6.03;3.47;;;4.00;90.70;;;;;;5064703;28;20262;-75
2022/01/04 03:47:37;;;;;;;8.27;4.03;;;4.00;90.70;;;;;;5065060;28;20258;-75
2022/01/04 03:50:03;;;;;;;4.80;3.13;;;4.00;90.70;;;;;;5063718;28;20191;-75
2022/01/04 03:52:30;;;;;;;7.07;3.63;;;4.00;90.60;;;;;;5065553;28;20190;-75
2022/01/04 03:54:56;;;;;;;5.17;3.63;;;4.00;90.90;;;;;;5059588;28;20247;-75
2022/01/04 03:57:22;;;;;;;8.83;5.53;;;4.00;91.20;;;;;;5061685;28;20191;-75
2022/01/04 03:59:47;;;;;;;3.23;2.53;;;3.90;91.20;;;;;;5062329;28;20964;-76
2022/01/04 04:02:13;;;;;;;3.17;2.83;;;;;;;;;;5062948;28;20250;-76
2022/01/04 04:04:40;;;;;;;5.17;2.77;;;;;;;;;;5063264;28;20295;-76
2022/01/04 04:07:05;;;;;;;3.50;2.70;;;3.90;91.40;;;;;;5060480;28;20187;-75
2022/01/04 04:09:34;;;;;;;5.00;3.47;;;3.90;91.20;;;;;;5064806;28;20186;-75
2022/01/04 04:12:01;;;;;;;4.67;2.90;;;3.90;91.30;;;;;;5062370;28;20175;-75
2022/01/04 04:14:27;;;;;;;3.90;2.97;;;3.80;91.20;;;;;;5065547;28;20179;-74
2022/01/04 04:16:53;;;;;;;5.33;2.87;;;3.80;91.20;;;;;;5058068;28;20194;-74
2022/01/04 04:19:19;;;;;;;5.47;2.77;;;3.80;91.30;;;;;;5063324;28;20815;-75
2022/01/04 04:21:45;;;;;;;3.80;3.00;;;;;;;;;;5063170;28;20183;-74
2022/01/04 04:24:11;;;;;;;5.73;3.23;;;;;;;;;;5063390;28;20186;-74
2022/01/04 04:26:37;;;;;;;4.17;2.97;;;3.80;91.00;;;;;;5060991;28;20183;-75
2022/01/04 04:29:03;;;;;;;6.47;4.07;;;3.80;90.90;;;;;;5065168;28;20232;-74
2022/01/04 04:31:29;;;;;;;4.23;3.83;;;;;;;;;;5061582;28;20233;-74
2022/01/04 04:33:55;;;;;;;4.10;3.17;;;;;;;;;;5062377;28;20190;-74
2022/01/04 04:36:21;;;;;;;5.57;4.40;;;;;;;;;;5063946;28;20189;-76
2022/01/04 04:38:47;;;;;;;4.67;3.87;;;;;;;;;;5063133;28;20583;-75
2022/01/04 04:41:13;;;;;;;6.73;5.00;;;;;;;;;;5059591;28;20766;-75
2022/01/04 04:43:39;;;;;;;11.07;5.87;;;3.60;91.10;;;;;;5064470;28;20237;-75
2022/01/04 04:46:04;;;;;;;8.03;4.23;;;3.60;91.20;;;;;;5062857;28;20182;-75
2022/01/04 04:48:30;;;;;;;11.43;4.70;;;3.50;91.10;;;;;;5060578;28;20642;-75
2022/01/04 04:50:56;;;;;;;5.90;4.73;;;3.50;91.10;;;;;;5062916;28;20186;-75
2022/01/04 04:53:22;;;;;;;8.87;5.47;;;3.50;91.10;;;;;;5062074;28;20179;-76
2022/01/04 04:55:48;;;;;;;9.20;5.47;;;;;;;;;;5061584;28;20175;-76
2022/01/04 04:58:14;;;;;;;10.10;5.53;;;3.40;91.30;;;;;;5065392;28;20247;-75
2022/01/04 05:00:39;;;;;;;11.23;5.90;;;3.40;91.60;;;;;;5064454;28;20715;-76
2022/01/04 05:03:05;;;;;;;6.27;5.47;;;;;;;;;;5067484;28;20215;-76
2022/01/04 05:05:31;;;;;;;10.93;6.30;;;;;;;;;;5067124;28;20178;-76
2022/01/04 05:07:57;;;;;;;7.40;5.93;;;;;;;;;;5064893;28;20257;-75
2022/01/04 05:10:23;;;;;;;25.90;6.23;;;;;;;;;;5062901;28;20183;-75
2022/01/04 05:12:49;;;;;;;8.10;5.90;;;;;;;;;;5065320;28;20186;-78
2022/01/04 05:15:15;;;;;;;14.93;4.40;;;;;;;;;;5065899;28;20188;-75
2022/01/04 05:17:41;;;;;;;5.43;4.87;;;3.20;92.40;;;;;;5064490;28;20184;-75
2022/01/04 05:20:07;;;;;;;8.07;5.30;;;3.20;92.40;;;;;;5064162;28;20222;-75
2022/01/04 05:22:34;;;;;;;10.83;5.77;;;;;;;;;;5065244;28;20183;-76
2022/01/04 05:25:00;;;;;;;3.67;3.37;;;;;;;;;;5062369;28;20330;-76
2022/01/04 05:27:26;;;;;;;6.77;4.43;;;;;;;;;;5065532;28;20179;-76
2022/01/04 05:29:52;;;;;;;6.37;3.97;;;;;;;;;;5063624;28;20723;-75
2022/01/04 05:32:17;;;;;;;5.50;5.07;;;3.20;92.50;;;;;;5069828;28;20260;-75
2022/01/04 05:34:43;;;;;;;6.40;4.20;;;;;;;;;;5065572;28;20955;-76
2022/01/04 05:37:10;;;;;;;8.50;5.83;;;3.20;92.50;;;;;;5066593;28;20266;-75
2022/01/04 05:39:36;;;;;;;9.80;6.00;;;;;;;;;;5064386;28;20211;-76
2022/01/04 05:42:01;;;;;;;7.07;5.57;;;3.30;92.50;;;;;;5063211;28;21616;-75
2022/01/04 05:44:27;;;;;;;8.87;6.33;;;3.20;92.60;;;;;;5065936;28;20179;-75
2022/01/04 05:46:53;;;;;;;7.80;5.63;;;3.30;92.70;;;;;;5066534;28;20645;-75
2022/01/04 05:49:19;;;;;;;9.60;6.60;;;;;;;;;;5066619;28;20183;-75
2022/01/04 05:51:45;;;;;;;10.17;5.80;;;;;;;;;;5065605;28;20178;-75
2022/01/04 05:54:11;;;;;;;16.23;7.63;;;3.30;93.10;;;;;;5067635;28;20278;-75
2022/01/04 05:56:37;;;;;;;9.60;5.57;;;3.20;93.50;;;;;;5067295;28;20274;-75
2022/01/04 05:59:03;;;;;;;8.07;5.90;;;;;;;;;;5068513;28;20215;-74
2022/01/04 06:01:29;;;;;;;11.30;5.60;;;;;;;;;;5067245;28;20256;-74
2022/01/04 06:03:55;;;;;;;11.63;5.40;;;;;;;;;;5066805;28;20175;-75
2022/01/04 06:06:21;;;;;;;8.60;6.23;;;;;;;;;;5064939;28;20264;-74
2022/01/04 06:08:48;;;;;;;10.07;4.93;;;3.20;94.40;;;;;;5060923;28;20273;-74
2022/01/04 06:11:43;;;;;;;7.47;4.63;;;;;;;;;;5061185;28;20233;-75
2022/01/04 06:16:54;;;;;;;6.97;4.80;;;;;;;;;;5064011;28;20190;-75
2022/01/04 06:19:20;;;;;;;10.10;3.87;;;;;;;;;;5065900;28;20218;-75
2022/01/04 06:21:46;;;;;;;7.87;4.97;;;;;;;;;;5066178;28;20180;-75
2022/01/04 06:24:12;;;;;;;8.80;4.87;;;3.40;94.00;;;;;;5065480;28;20183;-76
2022/01/04 06:26:38;;;;;;;7.67;5.17;;;3.40;93.80;;;;;;5061871;28;20186;-75
2022/01/04 06:29:04;;;;;;;8.03;6.60;;;;;;;;;;5061003;28;20237;-75
2022/01/04 06:31:30;;;;;;;9.20;4.90;;;3.50;93.50;;;;;;5062395;28;20179;-75
2022/01/04 06:33:56;;;;;;;3.87;3.57;;;3.60;93.50;;;;;;5064044;28;20178;-75
2022/01/04 06:36:22;;;;;;;5.67;3.97;;;3.60;93.40;;;;;;5058699;28;20262;-76
2022/01/04 06:38:48;;;;;;;4.17;3.43;;;;;;;;;;5065389;28;20218;-76
2022/01/04 06:41:14;;;;;;;12.10;5.43;;;3.80;93.40;;;;;;5060575;28;21107;-76
2022/01/04 06:43:40;;;;;;;4.63;4.23;;;3.90;93.30;;;;;;5061048;28;20183;-76
2022/01/04 06:46:05;;;;;;;7.57;4.93;;;4.00;93.10;;;;;;5059142;28;20179;-76
2022/01/04 06:48:31;;;;;;;8.60;4.93;;;4.10;93.00;;;;;;5062873;28;20266;-76
2022/01/04 06:50:57;;;;;;;6.27;5.67;;;4.20;92.60;;;;;;5063273;28;20190;-76
2022/01/04 06:53:23;;;;;;;6.60;5.40;;;4.20;92.40;;;;;;5063065;28;20215;-77
2022/01/04 06:55:50;;;;;;;6.03;5.47;;;4.30;92.00;;;;;;5064424;28;20179;-76
2022/01/04 06:58:17;;;;;;;9.47;5.77;;;4.40;91.80;;;;;;5080053;28;20190;-80
2022/01/04 07:00:44;;;;;;;9.30;7.03;;;4.40;91.50;;;;;;5058554;28;21120;-80
2022/01/04 07:03:10;;;;;;;24.33;9.57;;;;;;;;;;5061897;28;20178;-80
2022/01/04 07:05:36;;;;;;;15.50;9.53;;;;;;;;;;5062239;28;20183;-80
2022/01/04 07:08:03;;;;;;;18.37;10.70;;;4.40;91.30;;;;;;5065038;28;20561;-78
2022/01/04 07:10:29;;;;;;;21.30;11.13;;;4.50;91.40;;;;;;5057765;28;20191;-79
2022/01/04 07:12:55;;;;;;;21.30;12.43;;;;;;;;;;5063635;28;20225;-76
2022/01/04 07:15:21;;;;;;;17.50;12.00;;;4.70;91.00;;;;;;5061631;28;20572;-74
2022/01/04 07:17:47;;;;;;;21.03;11.37;;;4.80;90.80;;;;;;5059054;28;20195;-75
2022/01/04 07:20:12;;;;;;;19.17;11.47;;;5.00;91.00;;;;;;5063450;28;20202;-74
2022/01/04 07:22:38;;;;;;;18.33;11.83;;;5.20;91.20;;;;;;5060816;28;20178;-76
2022/01/04 07:25:05;;;;;;;20.70;12.77;;;5.40;90.90;;;;;;5060677;28;20696;-74
2022/01/04 07:27:31;;;;;;;22.97;12.30;;;5.70;90.70;;;;;;5061129;28;20186;-73
2022/01/04 07:29:57;;;;;;;25.53;14.00;;;5.90;90.50;;;;;;5059735;28;20191;-72
2022/01/04 07:32:22;;;;;;;19.30;13.17;;;6.30;89.10;;;;;;5060695;28;20187;-72
2022/01/04 07:34:48;;;;;;;28.60;15.70;;;6.50;87.90;;;;;;5060221;28;20187;-72
2022/01/04 07:37:14;;;;;;;30.43;14.20;;;6.70;87.60;;;;;;5058257;28;20210;-73
2022/01/04 07:39:40;;;;;;;28.13;15.53;;;7.00;87.40;;;;;;5053859;28;20214;-73
2022/01/04 07:42:06;;;;;;;24.03;14.00;;;7.20;87.30;;;;;;5061413;28;20191;-74
2022/01/04 07:44:32;;;;;;;22.27;13.60;;;7.50;87.10;;;;;;5061277;28;20179;-73
2022/01/04 07:46:58;;;;;;;27.40;14.00;;;;;;;;;;5062438;28;20642;-74
2022/01/04 07:49:24;;;;;;;25.20;14.87;;;;;;;;;;5059657;28;20654;-74
2022/01/04 07:51:50;;;;;;;27.10;15.23;;;8.40;84.90;;;;;;5060054;28;20187;-73
2022/01/04 07:54:17;;;;;;;25.93;14.30;;;;;;;;;;5061672;28;20179;-75
2022/01/04 07:56:43;;;;;;;31.37;14.33;;;;;;;;;;5057746;28;20232;-73
2022/01/04 07:59:09;;;;;;;30.47;15.13;;;;;;;;;;5065468;28;20210;-75
2022/01/04 08:01:35;;;;;;;27.10;15.13;;;;;;;;;;5066066;28;20206;-72
2022/01/04 08:04:01;;;;;;;25.37;15.10;;;;;;;;;;5062778;28;20240;-71
2022/01/04 08:06:30;;;;;;;25.83;14.83;;;9.30;80.00;;;;;;5060739;28;21175;-72
2022/01/04 08:08:56;;;;;;;25.03;14.50;;;9.40;79.50;;;;;;5062222;28;20182;-73
2022/01/04 08:11:21;;;;;;;32.20;15.07;;;9.40;78.60;;;;;;5062441;28;20194;-73
2022/01/04 08:13:47;;;;;;;24.20;12.97;;;9.50;79.20;;;;;;5063396;28;20205;-74
2022/01/04 08:16:17;;;;;;;23.17;14.17;;;9.80;79.40;;;;;;5060378;28;20677;-73
2022/01/04 08:18:43;;;;;;;20.60;12.53;;;10.00;79.00;;;;;;5061904;28;20191;-73
2022/01/04 08:21:09;;;;;;;26.52;13.25;;;10.30;78.60;;;;;;5065560;28;20261;-73
2022/01/04 08:23:35;;;;;;;23.37;13.57;;;10.40;76.40;;;;;;5064453;28;20341;-73
2022/01/04 08:26:01;;;;;;;26.85;14.35;;;10.50;76.30;;;;;;5064358;28;20586;-73
2022/01/04 08:28:26;;;;;;;23.10;13.43;;;10.50;76.50;;;;;;5065639;28;20201;-74
2022/01/04 08:30:52;;;;;;;26.30;13.80;;;10.80;77.10;;;;;;5080174;28;20187;-74
2022/01/04 08:33:18;;;;;;;24.00;14.05;;;11.20;77.80;;;;;;5066942;28;20186;-74
2022/01/04 08:35:45;;;;;;;20.70;12.32;;;11.80;75.60;;;;;;5068709;28;20183;-74
2022/01/04 08:38:10;;;;;;;21.73;12.07;;;11.90;75.60;;;;;;5067986;28;20183;-74
2022/01/04 08:40:37;;;;;;;20.35;11.20;;;12.00;73.90;;;;;;5070689;28;20238;-74
2022/01/04 08:43:03;;;;;;;21.45;11.88;;;12.10;73.00;;;;;;5068200;28;20359;-74
2022/01/04 08:45:28;;;;;;;20.77;11.48;;;12.20;73.30;;;;;;5069126;28;20271;-74
2022/01/04 08:47:54;;;;;;;24.10;11.57;;;12.30;72.50;;;;;;5067382;28;20723;-74
2022/01/04 08:50:22;;;;;;;16.20;9.98;;;12.30;71.80;;;;;;5068000;28;20688;-74
2022/01/04 08:52:54;;;;;;;15.52;9.43;;;12.40;71.80;;;;;;5067718;28;22299;-73
2022/01/04 08:55:20;;;;;;;16.17;10.48;;;12.50;71.60;;;;;;5065163;28;21007;-73
2022/01/04 08:57:46;;;;;;;16.42;8.82;;;12.60;71.10;;;;;;5065685;28;20201;-74
2022/01/04 09:00:13;;;;;;;15.52;10.02;;;12.70;70.70;;;;;;5067480;28;20226;-74
2022/01/04 09:02:38;;;;;;;17.05;11.18;;;12.70;70.70;;;;;;5067023;28;20190;-73
2022/01/04 09:05:05;;;;;;;17.38;10.40;;;12.90;70.00;;;;;;5069194;28;20641;-74
2022/01/04 09:07:31;;;;;;;14.55;10.85;;;12.90;70.10;;;;;;5061250;28;20728;-73
2022/01/04 09:09:58;;;;;;;22.33;13.02;;;13.00;69.90;;;;;;5067492;28;20693;-74
2022/01/04 09:12:28;;;;;;;18.63;12.27;;;13.20;69.10;;;;;;5065447;28;20182;-73
2022/01/04 09:20:07;;;;;;;15.55;10.75;;;13.40;68.70;;;;;;5068156;28;20221;-74
2022/01/04 09:22:33;;;;;;;21.50;12.95;;;13.60;68.50;;;;;;5065808;28;20183;-74
2022/01/04 09:24:59;;;;;;;21.20;12.85;;;13.70;67.50;;;;;;5069168;28;20259;-74
2022/01/04 09:27:25;;;;;;;19.30;12.30;;;14.10;68.50;;;;;;5066195;28;20874;-73
2022/01/04 09:29:51;;;;;;;19.13;12.57;;;14.50;66.60;;;;;;5067600;28;20187;-74
2022/01/04 09:32:17;;;;;;;18.55;12.43;;;14.60;66.90;;;;;;5083206;28;20183;-74
2022/01/04 09:34:44;;;;;;;27.48;14.00;;;15.40;65.50;;;;;;5067504;28;20481;-73
2022/01/04 09:37:10;;;;;;;21.65;13.63;;;15.50;66.20;;;;;;5066417;28;20983;-73
2022/01/04 09:39:36;;;;;;;21.77;13.45;;;16.30;63.70;;;;;;5065965;28;20268;-73
2022/01/04 09:42:02;;;;;;;20.02;12.88;;;16.70;64.00;;;;;;5065259;28;20183;-73
2022/01/04 09:44:28;;;;;;;20.60;12.30;;;16.80;64.10;;;;;;5066401;28;20190;-73
2022/01/04 09:46:55;;;;;;;19.08;12.30;;;17.70;62.10;;;;;;5069200;28;20619;-73
2022/01/04 09:49:21;;;;;;;17.60;12.15;;;18.10;60.90;;;;;;5063911;28;20187;-73
2022/01/04 09:51:49;;;;;;;20.73;12.82;;;18.50;59.30;;;;;;5065177;28;20183;-72
2022/01/04 09:54:24;;;;;;;22.58;13.68;;;18.80;58.90;;;;;;5066595;28;20183;-72
2022/01/04 09:56:50;;;;;;;21.52;13.68;;;18.90;59.70;;;;;;5065588;28;20656;-74
2022/01/04 09:59:17;;;;;;;22.00;13.23;;;19.30;58.80;;;;;;5066259;28;20230;-73
2022/01/04 10:01:45;;;;;;;15.80;12.43;;;20.00;57.90;;;;;;5062880;28;20194;-73
2022/01/04 10:04:12;;;;;;;21.77;13.15;;;20.10;59.20;;;;;;5065398;28;20269;-72
2022/01/04 10:06:39;;;;;;;19.42;12.57;;;20.60;58.50;;;;;;5067818;28;20191;-73
2022/01/04 10:09:10;;;;;;;16.75;13.15;;;21.00;57.80;;;;;;5065120;28;20237;-72
2022/01/04 10:11:44;;;;;;;20.40;13.82;;;21.30;57.30;;;;;;5067710;28;20692;-72
2022/01/04 10:14:32;;;;;;;20.42;12.98;;;21.50;55.00;;;;;;5064981;28;20246;-73
2022/01/04 10:17:06;;;;;;;21.02;12.75;;;21.20;54.20;;;;;;5063860;28;20175;-72
2022/01/04 10:19:46;;;;;;;16.20;11.60;;;20.80;56.40;;;;;;5062787;28;20712;-72
2022/01/04 10:22:16;;;;;;;24.70;14.13;;;20.60;56.20;;;;;;5067447;28;20574;-73
2022/01/04 10:24:44;;;;;;;23.85;14.90;;;20.60;56.30;;;;;;5067459;28;20179;-71
2022/01/04 10:27:29;;;;;;;19.73;12.77;;;20.50;56.00;;;;;;5066199;28;20183;-73
2022/01/04 10:30:15;;;;;;;18.13;12.63;;;20.80;54.70;;;;;;5066236;28;20187;-74
2022/01/04 10:32:49;;;;;;;18.98;13.82;;;20.90;56.50;;;;;;5065692;28;20832;-73
2022/01/04 10:35:25;;;;;;;18.33;12.43;;;21.40;55.80;;;;;;5065836;28;20190;-72
2022/01/04 10:37:52;;;;;;;20.90;12.68;;;21.70;56.30;;;;;;5066377;28;20274;-72
2022/01/04 10:40:19;;;;;;;19.02;12.95;;;22.00;55.60;;;;;;5064318;28;20811;-73
2022/01/04 10:42:45;;;;;;;16.45;13.15;;;22.40;54.30;;;;;;5064124;28;20183;-74
2022/01/04 10:45:30;;;;;;;23.67;14.52;;;22.80;54.20;;;;;;5064057;28;20649;-73
2022/01/04 10:48:13;;;;;;;19.23;13.43;;;23.10;51.10;;;;;;5065217;28;20194;-73
2022/01/04 10:50:40;;;;;;;23.13;15.07;;;23.40;53.40;;;;;;5064645;28;20639;-74
2022/01/04 10:53:12;;;;;;;19.00;13.52;;;23.90;51.00;;;;;;5066322;28;20190;-74
2022/01/04 10:55:38;;;;;;;19.85;13.55;;;24.00;52.90;;;;;;5065077;28;20621;-73
2022/01/04 10:58:04;;;;;;;20.73;13.27;;;24.20;53.10;;;;;;5064767;28;20276;-73
2022/01/04 11:00:31;;;;;;;23.45;15.05;;;24.40;50.00;;;;;;5063358;28;20228;-74
2022/01/04 11:03:02;;;;;;;21.40;14.88;;;24.40;52.30;;;;;;5063480;28;20735;-74
2022/01/04 11:05:29;;;;;;;21.77;13.63;;;24.50;51.80;;;;;;5063190;28;20186;-74
2022/01/04 11:07:57;;;;;;;16.60;13.77;;;24.50;50.10;;;;;;5063130;28;20189;-74
2022/01/04 11:10:24;;;;;;;13.18;9.65;;;24.50;50.60;;;;;;5065235;28;20657;-74
2022/01/04 11:12:51;;;;;;;10.00;7.57;;;24.40;49.10;;;;;;5061819;28;20182;-75
2022/01/04 11:15:18;;;;;;;13.10;8.90;;;24.20;50.90;;;;;;5059224;28;20183;-74
2022/01/04 11:17:45;;;;;;;10.07;9.07;;;24.00;50.90;;;;;;5063919;28;20228;-74
2022/01/04 11:20:11;;;;;;;13.70;9.25;;;23.80;51.70;;;;;;5062478;28;20326;-75
2022/01/04 11:22:41;;;;;;;19.17;10.32;;;23.50;51.70;;;;;;5062604;28;20224;-74
2022/01/04 11:25:09;;;;;;;15.80;10.30;;;23.20;51.70;;;;;;5061001;28;20581;-73
2022/01/04 11:27:36;;;;;;;15.52;11.15;;;23.00;52.80;;;;;;5060394;28;20231;-73
2022/01/04 11:30:14;;;;;;;19.50;11.70;;;22.90;53.30;;;;;;5059586;28;20270;-73
2022/01/04 11:32:43;;;;;;;13.60;10.68;;;22.80;52.70;;;;;;5056905;28;20746;-73
2022/01/04 11:35:16;;;;;;;15.98;11.88;;;22.80;53.70;;;;;;5059280;28;20304;-73
2022/01/04 11:37:54;;;;;;;19.65;12.77;;;22.80;53.60;;;;;;5059140;28;20982;-74
2022/01/04 11:40:41;;;;;;;23.15;12.23;;;22.60;51.10;;;;;;5059037;28;20225;-73
2022/01/04 11:43:25;;;;;;;16.75;12.07;;;22.50;50.90;;;;;;5057001;28;20782;-73
2022/01/04 11:45:51;;;;;;;16.15;11.13;;;22.40;51.10;;;;;;5060991;28;20226;-73
2022/01/04 11:48:34;;;;;;;13.80;10.82;;;22.00;52.60;;;;;;5058151;28;20285;-73
2022/01/04 11:51:03;;;;;;;15.68;11.43;;;22.00;51.20;;;;;;5055238;28;20190;-74
2022/01/04 11:53:31;;;;;;;18.90;12.10;;;21.70;54.00;;;;;;5059303;28;20266;-73
2022/01/04 11:56:03;;;;;;;17.48;10.98;;;21.30;53.60;;;;;;5056432;28;20193;-73
2022/01/04 11:58:49;;;;;;;17.85;12.32;;;21.30;53.90;;;;;;5056245;28;20255;-73
2022/01/04 12:01:16;;;;;;;16.88;11.60;;;21.20;52.80;;;;;;5058703;28;20195;-75
2022/01/04 12:03:48;;;;;;;18.00;11.18;;;21.00;52.80;;;;;;5058085;28;20232;-75
2022/01/04 12:06:16;;;;;;;16.20;11.77;;;21.00;54.70;;;;;;5059179;28;20179;-74
2022/01/04 12:08:48;;;;;;;13.23;11.07;;;21.10;55.00;;;;;;5060538;28;20228;-75
2022/01/04 12:11:26;;;;;;;12.98;10.52;;;21.20;53.00;;;;;;5055997;28;20183;-75
2022/01/04 12:13:57;;;;;;;15.40;10.95;;;21.20;54.00;;;;;;5056464;28;20621;-72
2022/01/04 12:16:36;;;;;;;12.85;10.98;;;21.30;55.60;;;;;;5059634;28;20179;-73
2022/01/04 12:19:07;;;;;;;18.15;10.10;;;21.30;53.40;;;;;;5060860;28;20309;-73
2022/01/04 12:21:44;;;;;;;18.65;9.95;;;21.20;55.10;;;;;;5057287;28;20207;-72
2022/01/04 12:24:13;;;;;;;11.70;9.10;;;21.00;55.20;;;;;;5060549;28;20190;-74
2022/01/04 12:26:39;;;;;;;12.70;9.68;;;20.80;55.00;;;;;;5058152;28;20183;-73
2022/01/04 12:29:05;;;;;;;18.83;10.20;;;20.50;54.80;;;;;;5063281;28;20217;-75
2022/01/04 12:32:03;;;;;;;18.27;10.15;;;20.00;55.30;;;;;;5062734;28;20210;-73
2022/01/04 12:34:52;;;;;;;11.88;9.90;;;19.60;56.80;;;;;;5061576;28;20895;-73
2022/01/04 12:37:18;;;;;;;12.38;9.55;;;19.00;56.00;;;;;;5061433;28;20262;-74
2022/01/04 12:39:46;;;;;;;12.13;9.38;;;18.60;57.40;;;;;;5058282;28;20575;-75
2022/01/04 12:42:15;;;;;;;12.70;8.82;;;18.20;57.80;;;;;;5063450;28;20255;-75
2022/01/04 12:44:41;;;;;;;14.25;8.60;;;17.90;59.10;;;;;;5059993;28;20183;-75
2022/01/04 12:47:10;;;;;;;10.70;8.15;;;17.90;57.50;;;;;;5058581;28;20182;-75
2022/01/04 12:49:37;;;;;;;8.93;7.80;;;17.90;59.10;;;;;;5058338;28;20187;-74
2022/01/04 12:52:06;;;;;;;11.38;7.72;;;18.00;59.10;;;;;;5060726;28;20191;-73
2022/01/04 12:54:37;;;;;;;9.45;7.90;;;18.10;59.10;;;;;;5063841;28;20232;-75
2022/01/04 12:57:06;;;;;;;7.47;6.60;;;18.20;58.20;;;;;;5070394;28;20183;-73
2022/01/04 12:59:37;;;;;;;10.05;7.32;;;18.10;59.10;;;;;;5069338;28;20217;-74
2022/01/04 13:02:31;;;;;;;8.25;7.05;;;18.20;59.20;;;;;;5063870;28;20209;-74
2022/01/04 13:05:05;;;;;;;9.70;7.63;;;18.40;58.50;;;;;;5063620;28;20190;-76
2022/01/04 13:07:33;;;;;;;10.10;6.65;;;18.50;58.30;;;;;;5061192;28;20622;-75
2022/01/04 13:10:10;;;;;;;8.88;7.07;;;18.60;57.80;;;;;;5063849;28;20179;-73
2022/01/04 13:12:48;;;;;;;11.77;8.02;;;18.50;57.40;;;;;;5061794;28;20178;-74
2022/01/04 13:15:19;;;;;;;13.32;7.70;;;18.40;57.70;;;;;;5065359;28;20209;-75
2022/01/04 13:17:50;;;;;;;6.78;5.90;;;18.30;57.70;;;;;;5065935;28;20637;-74